Time;durP1;ratioP1;P1;durP2;ratioP2;P2;SDS_P1;SDS_P2;PMS_P1;PMS_P2;Temp;Humidity;BMP_temperature;BMP_pressure;BME280_temperature;BME280_humidity;BME280_pressure;Samples;Min_cycle;Max_cycle;Signal;HPM_P1;HPM_P2
2021/12/13 00:00:32;;;;;;;12.98;1.10;;;23.50;58.40;;;;;;4069026;28;20050;-46
2021/12/13 00:02:45;;;;;;;3.50;0.98;;;23.60;58.50;;;;;;4069395;28;20211;-49
2021/12/13 00:04:56;;;;;;;5.13;0.93;;;23.60;58.70;;;;;;4067380;28;20054;-42
2021/12/13 00:07:12;;;;;;;7.80;1.10;;;23.60;59.00;;;;;;4065875;28;20157;-47
2021/12/13 00:09:22;;;;;;;6.13;1.05;;;23.70;59.20;;;;;;4066633;28;20083;-48
2021/12/13 00:11:31;;;;;;;2.58;0.80;;;23.70;59.50;;;;;;4065648;28;20105;-44
2021/12/13 00:13:53;;;;;;;2.85;0.85;;;23.70;59.20;;;;;;4065984;28;20051;-48
2021/12/13 00:16:00;;;;;;;3.35;1.10;;;23.70;59.20;;;;;;4067368;28;20132;-45
2021/12/13 00:18:07;;;;;;;1.58;0.90;;;23.70;59.30;;;;;;4066435;28;20054;-44
2021/12/13 00:20:28;;;;;;;3.22;1.20;;;23.80;58.80;;;;;;4063975;28;20047;-46
2021/12/13 00:22:37;;;;;;;3.97;1.40;;;23.80;58.20;;;;;;4062809;28;20117;-48
2021/12/13 00:24:42;;;;;;;3.78;1.85;;;23.80;57.30;;;;;;4065201;28;20051;-51
2021/12/13 00:26:47;;;;;;;4.22;1.92;;;23.80;56.70;;;;;;4061857;28;21175;-49
2021/12/13 00:28:50;;;;;;;3.13;1.75;;;23.80;56.70;;;;;;4074942;28;20134;-47
2021/12/13 00:31:05;;;;;;;2.92;1.38;;;23.80;56.50;;;;;;4069184;28;20119;-45
2021/12/13 00:33:28;;;;;;;8.02;2.00;;;23.80;56.40;;;;;;4074701;28;20047;-48
2021/12/13 00:36:02;;;;;;;4.43;2.00;;;23.80;56.40;;;;;;4065824;28;20176;-47
2021/12/13 00:38:08;;;;;;;3.10;1.63;;;23.80;56.30;;;;;;4076265;28;20065;-47
2021/12/13 00:40:22;;;;;;;3.67;1.70;;;23.80;56.30;;;;;;4071247;28;20063;-50
2021/12/13 00:42:25;;;;;;;;;;;23.80;55.50;;;;;;4056308;28;20261;-45
2021/12/13 00:44:40;;;;;;;4.22;1.73;;;23.80;56.00;;;;;;4067341;28;19999;-45
2021/12/13 00:46:45;;;;;;;2.65;1.42;;;23.90;56.10;;;;;;4065255;28;21665;-46
2021/12/13 00:48:52;;;;;;;5.47;1.77;;;23.90;56.00;;;;;;4066941;28;20054;-44
2021/12/13 00:51:17;;;;;;;5.85;1.65;;;23.90;56.00;;;;;;4063148;28;20085;-43
2021/12/13 00:53:21;;;;;;;3.95;1.70;;;23.90;55.90;;;;;;4068624;28;20825;-44
2021/12/13 00:55:27;;;;;;;2.13;1.20;;;23.90;56.00;;;;;;4066002;28;20142;-47
2021/12/13 00:57:38;;;;;;;3.13;1.42;;;23.90;55.90;;;;;;4065031;28;20047;-44
2021/12/13 01:00:04;;;;;;;4.20;1.75;;;23.90;55.80;;;;;;4066339;28;20050;-45
2021/12/13 01:02:19;;;;;;;3.42;1.35;;;23.90;55.40;;;;;;4169132;27;20430;-43
2021/12/13 01:04:23;;;;;;;3.08;1.73;;;23.90;55.90;;;;;;4135303;28;20048;-49
2021/12/13 01:07:15;;;;;;;4.55;1.50;;;23.90;55.90;;;;;;4164991;28;20052;-49
2021/12/13 01:10:14;;;;;;;4.97;1.90;;;23.90;56.00;;;;;;4166525;28;20194;-45
2021/12/13 01:12:20;;;;;;;2.03;1.08;;;23.90;55.90;;;;;;4142412;28;20032;-44
2021/12/13 01:14:36;;;;;;;5.55;1.80;;;24.00;55.90;;;;;;4145492;28;20052;-45
2021/12/13 01:17:03;;;;;;;3.25;1.88;;;24.00;55.90;;;;;;4141580;28;20520;-47
2021/12/13 01:22:43;;;;;;;3.03;1.40;;;24.00;55.60;;;;;;4159670;28;20052;-49
2021/12/13 01:25:16;;;;;;;4.60;1.17;;;24.00;55.60;;;;;;4165355;28;20039;-46
2021/12/13 01:27:15;;;;;;;3.75;1.40;;;24.00;55.60;;;;;;4159748;28;20055;-47
2021/12/13 01:29:21;;;;;;;3.20;1.40;;;24.00;55.60;;;;;;4158132;28;20041;-44
2021/12/13 01:31:33;;;;;;;3.72;1.40;;;24.00;55.50;;;;;;4162787;28;20044;-44
2021/12/13 01:33:43;;;;;;;4.15;1.13;;;24.00;55.70;;;;;;4159631;28;20143;-45
2021/12/13 01:35:48;;;;;;;3.28;1.40;;;24.00;55.60;;;;;;4162668;28;20102;-47
2021/12/13 01:37:53;;;;;;;5.03;1.48;;;24.00;55.40;;;;;;4165664;28;20078;-44
2021/12/13 01:39:57;;;;;;;3.17;1.35;;;24.10;55.40;;;;;;4162250;28;20056;-45
2021/12/13 01:42:07;;;;;;;2.45;1.10;;;24.00;55.60;;;;;;4159102;28;20521;-46
2021/12/13 01:44:22;;;;;;;2.45;1.13;;;24.10;55.60;;;;;;4157167;28;20606;-47
2021/12/13 01:46:25;;;;;;;3.45;1.35;;;24.10;55.70;;;;;;4159628;28;20056;-43
2021/12/13 01:48:38;;;;;;;3.47;1.25;;;24.10;55.70;;;;;;4160511;28;20157;-44
2021/12/13 01:50:51;;;;;;;3.88;1.73;;;24.10;55.70;;;;;;4161417;28;20072;-44
2021/12/13 01:52:53;;;;;;;;;;;24.10;56.30;;;;;;4160091;28;20052;-46
2021/12/13 01:55:00;;;;;;;2.22;1.17;;;24.10;55.70;;;;;;4152851;28;19955;-45
2021/12/13 01:59:51;;;;;;;3.03;1.20;;;24.20;55.60;;;;;;4142505;28;20892;-46
2021/12/13 02:01:56;;;;;;;2.78;1.25;;;24.20;55.60;;;;;;4149901;28;20122;-46
2021/12/13 02:04:06;;;;;;;4.30;1.48;;;24.20;55.50;;;;;;4143771;28;20064;-44
2021/12/13 02:06:08;;;;;;;4.65;1.50;;;24.20;55.40;;;;;;4144542;28;20078;-44
2021/12/13 02:08:13;;;;;;;3.50;1.45;;;24.20;55.40;;;;;;4142838;28;20079;-45
2021/12/13 02:10:31;;;;;;;2.92;1.02;;;24.20;55.30;;;;;;4151919;28;20144;-44
2021/12/13 02:12:36;;;;;;;3.88;1.30;;;24.20;55.30;;;;;;4137212;28;20536;-45
2021/12/13 02:14:47;;;;;;;2.65;1.23;;;24.20;55.40;;;;;;4140415;28;20056;-46
2021/12/13 02:17:14;;;;;;;4.63;1.33;;;24.20;55.40;;;;;;4140630;28;20053;-46
2021/12/13 02:19:22;;;;;;;3.03;1.17;;;24.30;55.40;;;;;;4130694;28;20516;-46
2021/12/13 02:21:30;;;;;;;3.85;1.52;;;24.30;55.50;;;;;;4131108;28;20111;-47
2021/12/13 02:23:36;;;;;;;3.03;1.05;;;24.30;55.60;;;;;;4132072;28;20566;-46
2021/12/13 02:25:51;;;;;;;3.05;1.45;;;24.30;55.40;;;;;;4135904;28;20112;-49
2021/12/13 02:27:59;;;;;;;2.42;1.15;;;24.30;55.50;;;;;;4130649;28;20696;-45
2021/12/13 02:30:09;;;;;;;3.65;1.42;;;24.30;55.50;;;;;;4133944;28;20052;-45
2021/12/13 02:32:11;;;;;;;3.10;1.40;;;24.30;55.50;;;;;;4135450;28;20052;-47
2021/12/13 02:34:17;;;;;;;3.30;1.50;;;24.30;55.50;;;;;;4138556;28;20049;-45
2021/12/13 02:36:32;;;;;;;2.75;0.93;;;24.40;55.50;;;;;;4129659;28;21723;-47
2021/12/13 02:38:36;;;;;;;4.78;1.48;;;24.40;55.50;;;;;;4134182;28;20447;-48
2021/12/13 02:40:38;;;;;;;4.40;1.60;;;24.40;55.50;;;;;;4131405;28;20538;-49
2021/12/13 02:42:41;;;;;;;5.13;1.52;;;24.40;55.50;;;;;;4129534;28;20119;-46
2021/12/13 02:44:49;;;;;;;3.08;1.02;;;24.40;55.50;;;;;;4138160;28;20045;-44
2021/12/13 02:46:53;;;;;;;3.42;1.48;;;24.40;55.50;;;;;;4138005;28;20443;-44
2021/12/13 02:49:02;;;;;;;4.47;1.58;;;24.40;55.50;;;;;;4128360;28;20087;-49
2021/12/13 02:51:13;;;;;;;4.00;1.60;;;24.40;55.40;;;;;;4129664;28;20124;-49
2021/12/13 02:53:19;;;;;;;2.55;1.10;;;24.40;55.60;;;;;;4130329;28;20642;-45
2021/12/13 02:55:25;;;;;;;5.63;1.30;;;24.40;55.50;;;;;;4128397;28;20055;-46
2021/12/13 02:57:33;;;;;;;3.47;1.55;;;24.40;55.50;;;;;;4132932;28;20868;-47
2021/12/13 02:59:39;;;;;;;3.97;1.50;;;24.50;55.50;;;;;;4133876;28;20052;-47
2021/12/13 03:01:48;;;;;;;3.47;1.73;;;24.50;55.50;;;;;;4139128;28;20056;-44
2021/12/13 03:03:59;;;;;;;3.10;1.05;;;24.50;55.50;;;;;;4136929;28;20090;-47
2021/12/13 03:06:05;;;;;;;4.30;1.33;;;24.50;55.50;;;;;;4137692;28;20057;-45
2021/12/13 03:08:18;;;;;;;4.28;1.38;;;24.50;55.60;;;;;;4130718;28;20045;-45
2021/12/13 03:10:36;;;;;;;4.68;1.23;;;24.60;55.50;;;;;;4132754;28;20067;-50
2021/12/13 03:12:39;;;;;;;3.78;1.50;;;24.50;55.40;;;;;;4138774;28;20139;-44
2021/12/13 03:14:56;;;;;;;5.70;1.47;;;24.60;54.70;;;;;;4129836;28;20048;-46
2021/12/13 03:17:09;;;;;;;3.90;1.55;;;24.60;55.20;;;;;;4134800;28;21807;-43
2021/12/13 03:19:40;;;;;;;5.10;1.38;;;24.50;55.10;;;;;;4137879;28;20042;-42
2021/12/13 03:22:06;;;;;;;4.13;1.17;;;24.60;55.60;;;;;;4130073;28;20067;-43
2021/12/13 03:24:20;;;;;;;1.45;1.00;;;24.60;55.60;;;;;;4139328;28;20053;-44
2021/12/13 03:26:44;;;;;;;3.53;1.13;;;24.60;55.80;;;;;;4139363;28;20048;-42
2021/12/13 03:29:07;;;;;;;4.30;0.93;;;24.70;55.90;;;;;;4131421;28;20492;-47
2021/12/13 03:31:26;;;;;;;2.33;1.00;;;24.70;55.80;;;;;;4133951;28;20693;-47
2021/12/13 03:33:51;;;;;;;2.50;1.05;;;24.70;55.60;;;;;;4141886;28;20479;-43
2021/12/13 03:36:00;;;;;;;3.00;1.13;;;24.70;55.50;;;;;;4127863;28;20048;-47
2021/12/13 03:38:20;;;;;;;3.33;1.40;;;24.70;55.60;;;;;;4131767;28;20048;-46
2021/12/13 03:40:23;;;;;;;4.20;1.45;;;24.70;55.50;;;;;;4133333;28;20729;-41
2021/12/13 03:42:33;;;;;;;6.43;3.60;;;24.70;55.50;;;;;;4130370;28;20102;-43
2021/12/13 03:44:41;;;;;;;5.03;3.63;;;24.70;56.10;;;;;;4121987;28;20383;-45
2021/12/13 03:46:46;;;;;;;6.03;3.70;;;24.70;55.60;;;;;;4129288;28;20575;-48
2021/12/13 03:48:50;;;;;;;5.35;3.35;;;24.70;55.80;;;;;;4130757;28;20211;-48
2021/12/13 03:50:59;;;;;;;4.13;2.97;;;24.70;55.90;;;;;;4130614;28;20048;-50
2021/12/13 03:53:06;;;;;;;6.22;3.08;;;24.80;56.00;;;;;;4127303;28;20052;-47
2021/12/13 03:55:11;;;;;;;4.22;3.08;;;24.80;56.20;;;;;;4129810;28;20056;-50
2021/12/13 03:57:17;;;;;;;5.30;2.97;;;24.80;56.60;;;;;;4133172;28;20830;-48
2021/12/13 03:59:23;;;;;;;3.75;3.00;;;24.90;55.90;;;;;;4138153;28;20063;-47
2021/12/13 04:02:17;;;;;;;4.32;2.40;;;24.90;55.60;;;;;;4148202;27;2705605;-49
2021/12/13 04:04:24;;;;;;;5.50;2.58;;;25.00;56.30;;;;;;4223179;27;20042;-50
2021/12/13 04:06:27;;;;;;;3.95;2.45;;;25.00;56.30;;;;;;4225547;27;20051;-45
2021/12/13 04:08:29;;;;;;;3.78;2.15;;;25.00;56.20;;;;;;4224234;27;20134;-44
2021/12/13 04:10:37;;;;;;;3.65;2.50;;;25.10;56.20;;;;;;4210190;27;20047;-48
2021/12/13 04:12:46;;;;;;;3.95;2.45;;;25.10;56.60;;;;;;4193406;27;20051;-43
2021/12/13 04:14:58;;;;;;;3.55;2.40;;;25.20;56.20;;;;;;4211396;27;20475;-52
2021/12/13 04:17:21;;;;;;;3.50;2.28;;;25.20;56.20;;;;;;4217988;27;20478;-49
2021/12/13 04:19:24;;;;;;;4.57;2.50;;;25.30;56.30;;;;;;4220431;27;20109;-49
2021/12/13 04:21:34;;;;;;;4.15;2.97;;;25.30;56.10;;;;;;4215595;27;20050;-48
2021/12/13 04:23:37;;;;;;;4.97;2.88;;;25.40;56.00;;;;;;4215901;27;20413;-45
2021/12/13 04:25:40;;;;;;;;;;;25.40;55.90;;;;;;4209320;27;21060;-47
2021/12/13 04:28:14;;;;;;;4.75;2.50;;;25.40;55.90;;;;;;4221977;27;20361;-46
2021/12/13 04:30:22;;;;;;;3.00;2.00;;;;;;;;;;4207985;27;20781;-46
2021/12/13 04:32:24;;;;;;;5.70;2.47;;;;;;;;;;4215646;27;20055;-48
2021/12/13 04:34:28;;;;;;;3.60;2.05;;;;;;;;;;4211442;27;20049;-50
2021/12/13 04:36:32;;;;;;;3.63;2.28;;;;;;;;;;4222976;27;20145;-51
2021/12/13 04:39:00;;;;;;;2.72;1.77;;;;;;;;;;4199003;27;21143;-47
2021/12/13 04:41:03;;;;;;;3.55;1.90;;;;;;;;;;4209246;27;20047;-47
2021/12/13 04:43:10;;;;;;;;;;;25.50;55.80;;;;;;4221676;27;20050;-47
2021/12/13 04:45:17;;;;;;;2.40;1.80;;;25.90;55.70;;;;;;4226415;27;19980;-47
2021/12/13 04:47:30;;;;;;;2.03;1.67;;;26.00;55.90;;;;;;4218201;27;21696;-49
2021/12/13 04:49:35;;;;;;;2.80;1.75;;;26.10;55.80;;;;;;4220009;27;20120;-42
2021/12/13 04:51:40;;;;;;;2.50;1.83;;;26.10;55.80;;;;;;4213487;27;20051;-42
2021/12/13 04:53:46;;;;;;;2.40;1.58;;;26.10;55.60;;;;;;4194639;27;20043;-42
2021/12/13 04:55:50;;;;;;;2.80;1.20;;;26.20;55.60;;;;;;4213302;27;20047;-45
2021/12/13 04:57:56;;;;;;;2.35;1.58;;;26.30;55.60;;;;;;4223141;27;20141;-42
2021/12/13 05:00:03;;;;;;;2.22;1.42;;;26.30;55.50;;;;;;4219943;27;20686;-43
2021/12/13 05:02:11;;;;;;;3.55;1.85;;;26.40;56.00;;;;;;4210453;27;20186;-48
2021/12/13 05:04:14;;;;;;;2.65;1.70;;;26.40;55.40;;;;;;4190519;27;20072;-45
2021/12/13 05:06:21;;;;;;;2.55;1.30;;;26.50;55.40;;;;;;4213145;27;20058;-47
2021/12/13 05:08:24;;;;;;;2.35;1.20;;;26.60;55.40;;;;;;4184909;27;20047;-45
2021/12/13 05:10:26;;;;;;;1.85;1.30;;;26.60;55.30;;;;;;4219643;27;20051;-50
2021/12/13 05:12:28;;;;;;;2.38;1.30;;;26.60;55.20;;;;;;4209245;27;20516;-49
2021/12/13 05:14:38;;;;;;;3.28;1.52;;;;;;;;;;4196137;27;20055;-45
2021/12/13 05:16:47;;;;;;;3.55;1.08;;;26.70;55.20;;;;;;4202921;27;20537;-46
2021/12/13 05:18:55;;;;;;;7.97;1.63;;;26.80;55.40;;;;;;4179379;27;21336;-49
2021/12/13 05:21:09;;;;;;;3.50;1.33;;;26.90;55.00;;;;;;4204879;27;20059;-50
2021/12/13 05:23:22;;;;;;;4.00;1.75;;;26.90;54.90;;;;;;4178154;27;20043;-45
2021/12/13 05:25:32;;;;;;;2.60;1.02;;;27.00;54.70;;;;;;4200622;27;20058;-48
2021/12/13 05:27:37;;;;;;;2.50;1.20;;;27.00;54.70;;;;;;4204002;27;20285;-44
2021/12/13 05:29:48;;;;;;;3.30;1.35;;;27.10;54.60;;;;;;4209892;27;20047;-43
2021/12/13 05:31:54;;;;;;;3.10;1.30;;;27.20;54.50;;;;;;4211350;27;20127;-44
2021/12/13 05:34:01;;;;;;;4.93;1.58;;;27.20;54.40;;;;;;4167845;28;20082;-41
2021/12/13 05:36:09;;;;;;;4.45;1.52;;;27.30;54.40;;;;;;4198770;27;21540;-46
2021/12/13 05:38:30;;;;;;;2.67;1.13;;;27.40;54.40;;;;;;4195601;27;20078;-43
2021/12/13 05:40:46;;;;;;;3.00;1.42;;;27.40;54.40;;;;;;4189364;27;20051;-48
2021/12/13 05:42:58;;;;;;;2.58;1.05;;;27.50;54.30;;;;;;4193355;27;20216;-49
2021/12/13 05:45:01;;;;;;;3.30;1.47;;;27.50;54.20;;;;;;4213138;27;20046;-46
2021/12/13 05:47:08;;;;;;;4.15;1.40;;;27.60;54.10;;;;;;4204827;27;20043;-50
2021/12/13 05:49:19;;;;;;;2.30;1.33;;;27.60;54.10;;;;;;4180017;27;20051;-47
2021/12/13 05:51:33;;;;;;;2.50;1.15;;;27.80;54.10;;;;;;4197173;27;20183;-49
2021/12/13 05:53:46;;;;;;;1.70;0.90;;;27.80;53.80;;;;;;4199765;27;20040;-52
2021/12/13 05:55:50;;;;;;;;;;;27.90;53.70;;;;;;4204672;27;20047;-47
2021/12/13 05:57:53;;;;;;;2.88;0.93;;;28.00;53.70;;;;;;4201127;27;20122;-49
2021/12/13 06:00:06;;;;;;;3.57;1.30;;;28.00;53.50;;;;;;4204105;27;20082;-49
2021/12/13 06:02:52;;;;;;;2.05;1.20;;;28.00;53.50;;;;;;4184066;27;20147;-49
2021/12/13 06:05:24;;;;;;;2.63;1.23;;;28.10;53.60;;;;;;4199565;27;20051;-47
2021/12/13 06:07:52;;;;;;;4.40;1.20;;;28.10;53.60;;;;;;4199345;27;20145;-49
2021/12/13 06:10:15;;;;;;;4.15;1.27;;;28.10;53.50;;;;;;4198338;27;20054;-51
2021/12/13 06:12:41;;;;;;;3.20;0.95;;;28.10;53.40;;;;;;4203174;27;20159;-49
2021/12/13 06:14:43;;;;;;;2.63;1.10;;;28.10;53.30;;;;;;4196066;27;20909;-49
2021/12/13 06:16:55;;;;;;;1.95;0.93;;;28.10;53.20;;;;;;4205276;27;20138;-49
2021/12/13 06:19:21;;;;;;;1.75;0.93;;;28.10;53.20;;;;;;4204076;27;20151;-53
2021/12/13 06:21:45;;;;;;;1.55;1.00;;;28.10;53.20;;;;;;4197575;27;20169;-50
2021/12/13 06:23:47;;;;;;;;;;;28.20;53.30;;;;;;4204333;27;20136;-50
2021/12/13 06:26:06;;;;;;;1.75;0.88;;;28.10;53.20;;;;;;4199976;27;20013;-53
2021/12/13 06:28:18;;;;;;;2.33;1.20;;;28.20;53.20;;;;;;4201931;27;21308;-47
2021/12/13 06:30:27;;;;;;;2.28;0.80;;;28.20;53.10;;;;;;4175071;27;20964;-47
2021/12/13 06:32:31;;;;;;;4.72;1.30;;;28.20;53.10;;;;;;4191536;27;20057;-49
2021/12/13 06:34:33;;;;;;;4.00;1.23;;;28.20;52.90;;;;;;4173945;27;20227;-51
2021/12/13 06:36:49;;;;;;;2.47;1.20;;;28.20;52.90;;;;;;4203056;27;20118;-49
2021/12/13 06:38:55;;;;;;;2.13;1.05;;;28.20;53.00;;;;;;4195853;27;20055;-53
2021/12/13 06:41:06;;;;;;;3.00;1.45;;;28.30;53.10;;;;;;4185705;27;20082;-53
2021/12/13 06:43:28;;;;;;;4.00;1.02;;;28.30;53.00;;;;;;4203136;27;20093;-53
2021/12/13 06:45:34;;;;;;;4.20;1.05;;;28.30;53.00;;;;;;4197998;27;20047;-50
2021/12/13 06:47:48;;;;;;;3.80;1.15;;;28.30;52.90;;;;;;4191218;27;20054;-54
2021/12/13 06:49:54;;;;;;;4.78;1.05;;;28.30;52.90;;;;;;4196968;27;20073;-54
2021/12/13 06:51:59;;;;;;;3.08;0.88;;;28.30;52.90;;;;;;4199131;27;20437;-50
2021/12/13 06:54:29;;;;;;;2.70;0.80;;;28.30;52.90;;;;;;4208114;27;20094;-51
2021/12/13 06:56:33;;;;;;;3.30;1.17;;;28.30;52.90;;;;;;4184694;27;20657;-47
2021/12/13 06:58:36;;;;;;;4.07;1.20;;;28.30;52.90;;;;;;4194854;27;20075;-46
2021/12/13 07:02:16;;;;;;;3.08;1.10;;;28.30;52.30;;;;;;4196692;27;20426;-47
2021/12/13 07:04:18;;;;;;;3.17;1.10;;;28.30;52.90;;;;;;4185855;27;20421;-54
2021/12/13 07:06:21;;;;;;;5.80;1.70;;;28.30;52.90;;;;;;4189681;28;20581;-49
2021/12/13 07:08:42;;;;;;;5.78;2.00;;;28.30;52.00;;;;;;4194131;27;20051;-48
2021/12/13 07:11:05;;;;;;;7.30;2.03;;;28.30;51.30;;;;;;4191072;28;20048;-51
2021/12/13 07:13:11;;;;;;;6.38;1.90;;;28.20;51.10;;;;;;4179888;28;22309;-51
2021/12/13 07:15:34;;;;;;;5.25;1.85;;;28.10;51.10;;;;;;4193402;27;20107;-48
2021/12/13 07:17:36;;;;;;;5.30;1.85;;;28.10;51.30;;;;;;4202203;28;20462;-46
2021/12/13 07:19:41;;;;;;;4.53;1.90;;;28.10;51.50;;;;;;4191723;27;20094;-44
2021/12/13 07:21:50;;;;;;;5.38;1.98;;;28.00;51.30;;;;;;4191099;27;20079;-47
2021/12/13 07:24:10;;;;;;;4.75;1.73;;;27.90;51.40;;;;;;4191760;27;20108;-46
2021/12/13 07:26:12;;;;;;;4.55;1.77;;;27.90;51.40;;;;;;4194320;28;21806;-47
2021/12/13 07:28:30;;;;;;;3.83;1.80;;;27.90;51.50;;;;;;4192410;27;20511;-51
2021/12/13 07:30:33;;;;;;;5.25;1.85;;;27.80;51.60;;;;;;4194102;28;21103;-48
2021/12/13 07:32:53;;;;;;;5.80;1.60;;;27.80;51.70;;;;;;4191429;27;20918;-50
2021/12/13 07:35:04;;;;;;;5.15;1.70;;;27.80;51.80;;;;;;4192043;27;20176;-49
2021/12/13 07:37:06;;;;;;;3.40;1.35;;;27.70;51.70;;;;;;4190939;28;20047;-46
2021/12/13 07:39:16;;;;;;;5.30;1.87;;;27.70;51.70;;;;;;4189873;27;20493;-50
2021/12/13 07:41:19;;;;;;;4.15;1.40;;;27.60;51.80;;;;;;4186957;28;20073;-49
2021/12/13 07:43:21;;;;;;;5.40;1.83;;;27.60;51.80;;;;;;4197855;27;20704;-49
2021/12/13 07:45:41;;;;;;;4.32;1.73;;;27.60;51.90;;;;;;4192369;27;22394;-49
2021/12/13 07:47:44;;;;;;;2.90;1.23;;;27.50;51.90;;;;;;4197510;27;20078;-51
2021/12/13 07:49:51;;;;;;;;;;;27.50;52.00;;;;;;4191736;28;21948;-47
2021/12/13 07:51:56;;;;;;;3.33;1.63;;;27.50;52.00;;;;;;4188539;27;20339;-46
2021/12/13 07:53:58;;;;;;;3.55;1.40;;;27.40;52.10;;;;;;4192108;28;20108;-48
2021/12/13 07:56:00;;;;;;;5.25;1.50;;;27.40;52.20;;;;;;4195325;27;20056;-50
2021/12/13 07:58:05;;;;;;;3.53;1.60;;;27.40;52.30;;;;;;4195945;27;20537;-48
2021/12/13 08:00:17;;;;;;;3.45;1.35;;;27.40;52.20;;;;;;4189431;28;20055;-52
2021/12/13 08:02:23;;;;;;;5.28;2.03;;;27.40;52.30;;;;;;4190587;27;21012;-55
2021/12/13 08:04:30;;;;;;;5.05;1.73;;;27.40;52.30;;;;;;4190434;28;20135;-55
2021/12/13 08:06:39;;;;;;;4.28;1.42;;;27.30;52.50;;;;;;4191783;27;20058;-48
2021/12/13 08:08:53;;;;;;;4.15;1.40;;;27.30;52.30;;;;;;4196498;27;20785;-50
2021/12/13 08:11:00;;;;;;;3.17;1.30;;;27.30;52.30;;;;;;4197840;27;20051;-52
2021/12/13 08:13:20;;;;;;;4.35;1.30;;;27.30;52.40;;;;;;4194087;28;20071;-52
2021/12/13 08:15:34;;;;;;;3.97;1.33;;;27.30;52.50;;;;;;4186791;28;21776;-55
2021/12/13 08:17:49;;;;;;;5.35;1.45;;;27.20;52.40;;;;;;4189821;28;20070;-51
2021/12/13 08:19:59;;;;;;;4.63;1.40;;;27.20;52.30;;;;;;4184927;28;20088;-52
2021/12/13 08:22:10;;;;;;;5.70;1.58;;;27.20;53.00;;;;;;4163928;28;20099;-52
2021/12/13 08:24:22;;;;;;;4.82;1.50;;;27.20;52.40;;;;;;4181681;28;20074;-50
2021/12/13 08:26:42;;;;;;;4.00;1.77;;;27.20;52.30;;;;;;4182079;28;20044;-48
2021/12/13 08:28:51;;;;;;;3.80;1.35;;;27.20;52.40;;;;;;4186514;28;20053;-53
2021/12/13 08:30:57;;;;;;;3.72;1.42;;;27.10;52.40;;;;;;4184648;28;22305;-47
2021/12/13 08:33:05;;;;;;;6.22;1.50;;;27.10;52.40;;;;;;4181810;28;20079;-50
2021/12/13 08:35:08;;;;;;;3.88;1.30;;;27.10;52.40;;;;;;4180135;28;20051;-53
2021/12/13 08:37:24;;;;;;;3.03;0.90;;;27.10;52.40;;;;;;4180948;28;20093;-53
2021/12/13 08:39:37;;;;;;;3.95;1.15;;;27.10;52.10;;;;;;4178190;28;20576;-51
2021/12/13 08:42:09;;;;;;;3.25;1.02;;;27.10;52.30;;;;;;4180084;28;20700;-52
2021/12/13 08:44:12;;;;;;;6.68;1.42;;;27.10;52.50;;;;;;4175053;28;20138;-50
2021/12/13 08:46:28;;;;;;;3.47;1.15;;;27.10;52.80;;;;;;4180603;28;20545;-45
2021/12/13 08:48:30;;;;;;;1.95;0.88;;;27.10;53.10;;;;;;4181838;28;20091;-56
2021/12/13 08:50:42;;;;;;;4.55;1.20;;;27.10;53.30;;;;;;4174786;28;20048;-49
2021/12/13 08:52:47;;;;;;;6.70;1.40;;;27.00;53.70;;;;;;4177486;28;20935;-50
2021/12/13 08:54:58;;;;;;;5.88;1.10;;;27.10;53.40;;;;;;4177632;28;20055;-47
2021/12/13 08:57:01;;;;;;;2.95;1.25;;;27.10;53.90;;;;;;4178461;28;20040;-46
2021/12/13 08:59:12;;;;;;;5.15;1.17;;;27.10;54.00;;;;;;4179671;28;20068;-53
2021/12/13 09:01:16;;;;;;;1.80;0.90;;;27.10;54.10;;;;;;4184256;28;21020;-50
2021/12/13 09:03:35;;;;;;;1.48;0.70;;;27.10;54.10;;;;;;4178032;28;20698;-49
2021/12/13 09:05:52;;;;;;;2.63;0.90;;;27.10;54.20;;;;;;4187846;28;20055;-49
2021/12/13 09:08:09;;;;;;;2.72;0.93;;;27.10;54.10;;;;;;4166617;28;20223;-49
2021/12/13 09:10:12;;;;;;;2.30;0.85;;;27.10;54.30;;;;;;4173663;28;20048;-45
2021/12/13 09:12:25;;;;;;;4.28;0.98;;;27.10;54.10;;;;;;4178004;28;20055;-47
2021/12/13 09:14:50;;;;;;;1.42;0.55;;;27.10;54.20;;;;;;4175507;28;20058;-51
2021/12/13 09:17:44;;;;;;;3.28;1.08;;;27.10;54.20;;;;;;4175996;28;21967;-48
2021/12/13 09:19:51;;;;;;;2.17;0.70;;;27.10;54.20;;;;;;4156960;28;20051;-46
2021/12/13 09:22:12;;;;;;;2.67;1.08;;;27.20;54.30;;;;;;4180215;28;20073;-44
2021/12/13 09:24:24;;;;;;;1.80;0.93;;;27.10;54.10;;;;;;4174826;28;20055;-46
2021/12/13 09:26:27;;;;;;;3.97;1.02;;;27.10;54.10;;;;;;4175578;28;20108;-49
2021/12/13 09:28:38;;;;;;;3.25;0.98;;;27.10;54.10;;;;;;4181283;28;20197;-47
2021/12/13 09:30:54;;;;;;;1.10;0.60;;;27.10;54.20;;;;;;4179487;28;20043;-43
2021/12/13 09:33:01;;;;;;;1.48;0.68;;;27.10;54.10;;;;;;4182584;28;20058;-42
2021/12/13 09:35:25;;;;;;;3.03;0.60;;;27.10;54.10;;;;;;4182580;28;20315;-42
2021/12/13 09:37:33;;;;;;;;;;;27.10;54.20;;;;;;4175531;28;20048;-49
2021/12/13 09:39:35;;;;;;;1.80;0.82;;;27.10;54.20;;;;;;4174215;28;20051;-52
2021/12/13 09:41:48;;;;;;;2.53;0.98;;;27.10;54.10;;;;;;4181178;28;20096;-47
2021/12/13 09:44:08;;;;;;;4.30;0.90;;;27.10;54.90;;;;;;4175738;28;20055;-52
2021/12/13 09:46:14;;;;;;;2.40;0.70;;;27.10;54.30;;;;;;4171330;28;20047;-50
2021/12/13 09:48:47;;;;;;;2.15;0.80;;;27.00;54.30;;;;;;4180510;28;20136;-48
2021/12/13 09:50:54;;;;;;;4.78;0.90;;;27.10;54.40;;;;;;4170384;28;20054;-47
2021/12/13 09:53:07;;;;;;;4.45;1.20;;;27.10;54.50;;;;;;4171016;28;20124;-49
2021/12/13 09:55:32;;;;;;;2.92;0.77;;;27.10;54.60;;;;;;4174111;28;20051;-51
2021/12/13 09:57:38;;;;;;;2.25;0.90;;;27.10;54.60;;;;;;4182335;28;20051;-50
2021/12/13 09:59:51;;;;;;;9.98;1.02;;;27.10;54.70;;;;;;4181514;28;20058;-48
2021/12/13 10:02:29;;;;;;;2.67;0.82;;;27.10;54.10;;;;;;4173575;27;20834;-48
2021/12/13 10:04:41;;;;;;;2.40;0.70;;;27.10;54.70;;;;;;4160432;28;20140;-48
2021/12/13 10:06:54;;;;;;;1.50;0.68;;;27.10;54.60;;;;;;4146965;28;22216;-49
2021/12/13 10:09:07;;;;;;;1.20;0.70;;;27.10;54.70;;;;;;4145184;28;21483;-51
2021/12/13 10:11:16;;;;;;;1.38;0.70;;;27.10;54.70;;;;;;4150356;28;20043;-51
2021/12/13 10:13:26;;;;;;;2.08;0.90;;;27.10;54.70;;;;;;4145430;28;20265;-50
2021/12/13 10:15:39;;;;;;;2.00;0.50;;;27.10;54.90;;;;;;4148200;28;21029;-47
2021/12/13 10:17:45;;;;;;;4.40;0.60;;;27.10;54.80;;;;;;4147575;28;20048;-51
2021/12/13 10:19:54;;;;;;;1.98;0.77;;;27.10;54.90;;;;;;4146423;28;21047;-47
2021/12/13 10:21:57;;;;;;;2.22;0.90;;;27.10;54.90;;;;;;4144238;28;20068;-49
2021/12/13 10:24:07;;;;;;;0.60;0.40;;;27.10;54.90;;;;;;4144933;28;20055;-49
2021/12/13 10:26:11;;;;;;;2.15;0.88;;;27.10;54.90;;;;;;4146897;28;20056;-49
2021/12/13 10:28:20;;;;;;;1.27;0.60;;;27.10;54.90;;;;;;4155506;28;20084;-53
2021/12/13 10:30:27;;;;;;;2.00;0.70;;;27.10;54.90;;;;;;4155298;28;20088;-50
2021/12/13 10:32:36;;;;;;;0.90;0.60;;;27.10;54.80;;;;;;4127433;28;20051;-49
2021/12/13 10:34:43;;;;;;;1.20;0.73;;;27.10;54.90;;;;;;4160769;28;20826;-52
2021/12/13 10:37:04;;;;;;;0.60;0.50;;;27.00;54.90;;;;;;4147132;28;20671;-50
2021/12/13 10:39:17;;;;;;;1.40;0.77;;;27.10;55.10;;;;;;4145521;28;20688;-53
2021/12/13 10:41:27;;;;;;;2.72;0.60;;;27.10;55.00;;;;;;4141866;28;20148;-49
2021/12/13 10:43:33;;;;;;;3.75;0.77;;;27.10;55.00;;;;;;4144574;28;20187;-51
2021/12/13 10:45:41;;;;;;;2.40;0.57;;;27.10;55.00;;;;;;4144360;28;20067;-54
2021/12/13 10:47:49;;;;;;;1.00;0.50;;;27.10;55.10;;;;;;4132472;28;20043;-50
2021/12/13 10:49:52;;;;;;;2.13;0.65;;;27.10;55.00;;;;;;4201098;27;20048;-52
2021/12/13 10:52:08;;;;;;;2.60;0.60;;;27.10;55.10;;;;;;4206148;28;20372;-47
2021/12/13 10:54:20;;;;;;;1.75;0.60;;;27.10;55.10;;;;;;4193676;28;20058;-46
2021/12/13 10:56:35;;;;;;;1.02;0.70;;;27.10;55.10;;;;;;4184526;28;20113;-51
2021/12/13 10:58:43;;;;;;;0.60;0.40;;;27.10;55.10;;;;;;4184313;28;20052;-50
2021/12/13 11:00:59;;;;;;;1.70;0.73;;;27.00;55.00;;;;;;4186233;28;20737;-50
2021/12/13 11:03:07;;;;;;;1.30;0.50;;;27.10;55.10;;;;;;4185597;28;20061;-49
2021/12/13 11:05:17;;;;;;;2.05;0.75;;;27.00;55.00;;;;;;4187754;28;20043;-45
2021/12/13 11:07:20;;;;;;;1.13;0.50;;;27.10;55.10;;;;;;4189690;28;20047;-48
2021/12/13 11:09:23;;;;;;;;;;;27.10;55.10;;;;;;4178665;28;20710;-50
2021/12/13 11:11:34;;;;;;;0.80;0.40;;;27.00;55.00;;;;;;4180204;28;19931;-47
2021/12/13 11:13:39;;;;;;;2.13;0.52;;;27.00;55.00;;;;;;4166764;28;20056;-52
2021/12/13 11:15:46;;;;;;;2.95;0.50;;;27.00;55.00;;;;;;4132748;28;20374;-46
2021/12/13 11:17:48;;;;;;;1.70;0.70;;;27.00;55.00;;;;;;4137464;28;20055;-54
2021/12/13 11:19:58;;;;;;;1.23;0.50;;;27.00;55.00;;;;;;4129838;28;21818;-51
2021/12/13 11:22:11;;;;;;;0.70;0.40;;;27.00;55.10;;;;;;4125794;28;20085;-50
2021/12/13 11:24:19;;;;;;;1.58;0.50;;;27.00;55.00;;;;;;4128742;28;20076;-50
2021/12/13 11:26:25;;;;;;;0.73;0.55;;;27.00;55.10;;;;;;4128889;28;20678;-52
2021/12/13 11:28:29;;;;;;;1.95;0.77;;;27.00;55.10;;;;;;4129029;28;20071;-55
2021/12/13 11:30:33;;;;;;;1.23;0.43;;;27.00;55.20;;;;;;4134054;28;21271;-53
2021/12/13 11:32:38;;;;;;;2.00;0.38;;;27.00;55.20;;;;;;4134562;28;20518;-52